createdAt,value
2023-01-11T00:02:16.536Z,7.48
2023-01-11T00:04:44.274Z,7.48
2023-01-11T00:07:13.115Z,7.47
2023-01-11T00:09:40.624Z,7.46
2023-01-11T00:12:08.698Z,7.56
2023-01-11T00:14:37.420Z,7.38
2023-01-11T00:17:04.900Z,7.68
2023-01-11T00:19:32.737Z,7.61
2023-01-11T00:22:00.345Z,7.55
2023-01-11T00:24:29.228Z,7.60
2023-01-11T00:26:56.867Z,7.57
2023-01-11T00:29:24.415Z,7.60
2023-01-11T00:31:53.236Z,7.73
2023-01-11T00:34:21.159Z,7.59
2023-01-11T00:36:48.639Z,7.70
2023-01-11T00:39:16.323Z,7.67
2023-01-11T00:42:02.854Z,7.71
2023-01-11T00:44:48.359Z,7.61
2023-01-11T00:47:33.618Z,7.73
2023-01-11T00:50:01.329Z,7.68
2023-01-11T00:52:28.964Z,7.73
2023-01-11T00:54:56.738Z,7.71
2023-01-11T00:57:25.584Z,7.87
2023-01-11T00:59:53.021Z,7.86
2023-01-11T01:02:20.587Z,7.88
2023-01-11T01:04:48.042Z,7.78
2023-01-11T01:07:15.533Z,7.83
2023-01-11T01:09:43.032Z,7.96
2023-01-11T01:12:10.569Z,7.99
2023-01-11T01:14:38.840Z,8.02
2023-01-11T01:17:08.490Z,8.15
2023-01-11T01:19:38.150Z,8.19
2023-01-11T01:22:05.957Z,8.10
2023-01-11T01:24:33.907Z,8.03
2023-01-11T01:27:01.373Z,8.04
2023-01-11T01:29:28.855Z,8.25
2023-01-11T01:31:57.756Z,8.14
2023-01-11T01:34:25.220Z,8.21
2023-01-11T01:36:52.694Z,8.21
2023-01-11T01:39:20.195Z,8.18
2023-01-11T01:41:47.664Z,8.14
2023-01-11T01:44:52.564Z,8.24
2023-01-11T01:47:24.778Z,8.26
2023-01-11T01:49:52.380Z,8.23
2023-01-11T01:52:20.229Z,8.14
2023-01-11T01:54:50.122Z,8.08
2023-01-11T01:57:22.389Z,8.20
2023-01-11T01:59:52.736Z,8.10
2023-01-11T02:02:25.594Z,8.14
2023-01-11T02:04:56.211Z,8.12
2023-01-11T02:07:27.442Z,8.16
2023-01-11T02:10:00.638Z,8.26
2023-01-11T02:12:32.215Z,8.20
2023-01-11T02:15:01.684Z,8.18
2023-01-11T02:17:30.545Z,8.21
2023-01-11T02:20:08.491Z,8.19
2023-01-11T02:23:00.477Z,8.28
2023-01-11T02:25:56.415Z,8.29
2023-01-11T02:28:30.745Z,8.12
2023-01-11T02:31:07.040Z,8.14
2023-01-11T02:33:43.588Z,8.27
2023-01-11T02:36:18.141Z,8.17
2023-01-11T02:38:52.766Z,8.01
2023-01-11T02:41:27.089Z,8.19
2023-01-11T02:44:19.262Z,8.18
2023-01-11T02:46:50.456Z,8.10
2023-01-11T02:49:29.116Z,8.02
2023-01-11T02:52:01.888Z,7.98
2023-01-11T02:54:30.709Z,8.06
2023-01-11T02:57:01.087Z,8.12
2023-01-11T02:59:33.582Z,8.05
2023-01-11T03:02:01.247Z,8.09
2023-01-11T03:04:30.861Z,8.06
2023-01-11T03:07:21.596Z,8.14
2023-01-11T03:09:58.830Z,8.25
2023-01-11T03:12:51.605Z,8.12
2023-01-11T03:15:34.784Z,8.19
2023-01-11T03:18:15.732Z,8.14
2023-01-11T03:20:49.561Z,8.13
2023-01-11T03:23:22.768Z,8.21
2023-01-11T03:25:58.859Z,8.32
2023-01-11T03:28:36.568Z,8.21
2023-01-11T03:31:09.803Z,8.20
2023-01-11T03:33:41.106Z,8.25
2023-01-11T03:36:18.838Z,8.25
2023-01-11T03:38:50.001Z,8.28
2023-01-11T03:41:21.369Z,8.19
2023-01-11T03:43:52.801Z,8.30
2023-01-11T03:46:24.856Z,8.19
2023-01-11T03:48:56.476Z,8.30
2023-01-11T03:51:27.970Z,8.42
2023-01-11T03:53:59.670Z,8.51
2023-01-11T03:56:36.990Z,8.36
2023-01-11T03:59:04.705Z,8.38
2023-01-11T04:01:33.615Z,8.33
2023-01-11T04:04:01.105Z,8.32
2023-01-11T04:06:28.773Z,8.37
2023-01-11T04:08:56.321Z,8.46
2023-01-11T04:11:23.758Z,8.59
2023-01-11T04:13:51.202Z,8.47
2023-01-11T04:16:18.744Z,8.57
2023-01-11T04:18:47.696Z,8.61
2023-01-11T04:21:15.162Z,8.49
2023-01-11T04:23:42.634Z,8.56
2023-01-11T04:26:10.352Z,8.55
2023-01-11T04:28:37.796Z,8.59
2023-01-11T04:31:05.489Z,8.65
2023-01-11T04:33:32.929Z,8.60
2023-01-11T04:36:05.417Z,8.73
2023-01-11T04:38:33.829Z,8.68
2023-01-11T04:41:15.400Z,8.66
2023-01-11T04:43:42.858Z,8.62
2023-01-11T04:46:11.253Z,8.61
2023-01-11T04:48:39.464Z,8.65
2023-01-11T04:51:08.979Z,8.72
2023-01-11T04:53:37.106Z,8.85
2023-01-11T04:56:05.940Z,8.99
2023-01-11T04:58:37.177Z,8.75
2023-01-11T05:01:09.955Z,8.75
2023-01-11T05:03:37.511Z,8.95
2023-01-11T05:06:05.768Z,8.88
2023-01-11T05:08:35.141Z,8.85
2023-01-11T05:11:05.088Z,8.80
2023-01-11T05:13:45.196Z,8.78
2023-01-11T05:16:14.923Z,8.84
2023-01-11T05:18:43.690Z,8.85
2023-01-11T05:21:12.784Z,8.84
2023-01-11T05:23:42.955Z,8.82
2023-01-11T05:26:12.603Z,8.99
2023-01-11T05:28:40.185Z,8.97
2023-01-11T05:31:07.752Z,9.09
2023-01-11T05:33:35.551Z,9.04
2023-01-11T05:36:05.497Z,8.98
2023-01-11T05:38:33.252Z,9.04
2023-01-11T05:41:03.497Z,9.16
2023-01-11T05:43:31.917Z,9.16
2023-01-11T05:45:59.576Z,9.20
2023-01-11T05:48:27.786Z,9.33
2023-01-11T05:50:57.026Z,9.29
2023-01-11T05:53:25.113Z,9.33
2023-01-11T05:55:53.496Z,9.35
2023-01-11T05:58:22.997Z,9.36
2023-01-11T06:00:51.187Z,9.42
2023-01-11T06:03:19.511Z,9.43
2023-01-11T06:05:47.532Z,9.41
2023-01-11T06:08:15.085Z,9.41
2023-01-11T06:10:42.785Z,9.45
2023-01-11T06:13:24.483Z,9.43
2023-01-11T06:15:53.679Z,9.51
2023-01-11T06:18:21.692Z,9.59
2023-01-11T06:20:53.519Z,9.70
2023-01-11T06:23:21.343Z,9.72
2023-01-11T06:25:48.857Z,9.71
2023-01-11T06:28:16.550Z,9.77
2023-01-11T06:30:44.217Z,9.74
2023-01-11T06:33:13.046Z,9.87
2023-01-11T06:35:42.661Z,9.89
2023-01-11T06:38:11.797Z,9.96
2023-01-11T06:40:41.270Z,9.85
2023-01-11T06:43:10.706Z,9.91
2023-01-11T06:45:39.097Z,9.87
2023-01-11T06:48:07.164Z,9.91
2023-01-11T06:50:36.034Z,9.91
2023-01-11T06:53:03.534Z,9.96
2023-01-11T06:55:32.484Z,9.92
2023-01-11T06:58:00.070Z,9.89
2023-01-11T07:00:27.883Z,9.89
2023-01-11T07:02:55.471Z,9.94
2023-01-11T07:05:23.039Z,9.93
2023-01-11T07:07:51.901Z,9.97
2023-01-11T07:10:19.458Z,9.98
2023-01-11T07:12:47.051Z,9.99
2023-01-11T07:15:14.554Z,10.09
2023-01-11T07:17:42.079Z,10.23
2023-01-11T07:20:11.199Z,10.23
2023-01-11T07:22:38.721Z,10.32
2023-01-11T07:25:08.590Z,10.23
2023-01-11T07:27:36.093Z,10.27
2023-01-11T07:30:03.671Z,10.23
2023-01-11T07:32:31.178Z,10.20
2023-01-11T07:34:59.056Z,10.23
2023-01-11T07:37:29.213Z,10.31
2023-01-11T07:39:57.184Z,10.23
2023-01-11T07:42:44.187Z,10.32
2023-01-11T07:45:12.297Z,10.36
2023-01-11T07:47:39.787Z,10.40
2023-01-11T07:50:08.715Z,10.24
2023-01-11T07:52:36.224Z,10.35
2023-01-11T07:55:04.414Z,10.45
2023-01-11T07:57:35.442Z,10.37
2023-01-11T08:00:03.445Z,10.40
2023-01-11T08:02:31.006Z,10.38
2023-01-11T08:04:58.734Z,10.48
2023-01-11T08:07:26.357Z,10.56
2023-01-11T08:09:53.819Z,10.50
2023-01-11T08:12:39.172Z,10.44
2023-01-11T08:15:10.293Z,10.56
2023-01-11T08:17:38.474Z,10.72
2023-01-11T08:20:06.501Z,10.67
2023-01-11T08:22:34.199Z,10.95
2023-01-11T08:25:01.750Z,11.00
2023-01-11T08:27:29.206Z,11.07
2023-01-11T08:29:56.668Z,10.88
2023-01-11T08:32:28.784Z,10.82
2023-01-11T08:34:56.444Z,10.73
2023-01-11T08:37:24.126Z,10.83
2023-01-11T08:39:52.065Z,10.79
2023-01-11T08:42:19.593Z,10.90
2023-01-11T08:44:47.091Z,10.84
2023-01-11T08:47:14.670Z,10.73
2023-01-11T08:49:43.439Z,10.77
2023-01-11T08:52:13.858Z,10.64
2023-01-11T08:54:41.479Z,10.82
2023-01-11T08:57:09.090Z,10.87
2023-01-11T08:59:36.551Z,10.96
2023-01-11T09:02:06.329Z,10.82
2023-01-11T09:04:34.843Z,10.93
2023-01-11T09:07:03.962Z,10.77
2023-01-11T09:09:31.924Z,10.74
2023-01-11T09:12:04.734Z,10.70
2023-01-11T09:14:33.157Z,10.70
2023-01-11T09:17:00.771Z,10.77
2023-01-11T09:19:28.277Z,10.86
2023-01-11T09:22:00.811Z,10.84
2023-01-11T09:24:29.931Z,10.68
2023-01-11T09:26:59.248Z,10.63
2023-01-11T09:29:27.168Z,10.51
2023-01-11T09:31:54.880Z,10.56
2023-01-11T09:34:23.114Z,10.61
2023-01-11T09:36:50.671Z,10.69
2023-01-11T09:39:20.417Z,10.47
2023-01-11T09:42:12.915Z,10.57
2023-01-11T09:44:50.705Z,10.57
2023-01-11T09:47:26.262Z,10.62
2023-01-11T09:49:57.172Z,10.51
2023-01-11T09:52:29.752Z,10.46
2023-01-11T09:54:58.516Z,10.45
2023-01-11T09:57:39.375Z,10.43
2023-01-11T10:00:16.323Z,10.25
2023-01-11T10:02:59.877Z,10.21
2023-01-11T10:05:42.000Z,10.27
2023-01-11T10:18:22.096Z,10.45
2023-01-11T10:18:28.855Z,10.46
2023-01-11T10:20:24.621Z,10.29
2023-01-11T10:22:57.405Z,10.15
2023-01-11T10:25:33.514Z,10.09
2023-01-11T10:28:07.385Z,10.07
2023-01-11T10:30:53.613Z,10.23
2023-01-11T10:33:46.286Z,10.26
2023-01-11T10:36:34.594Z,10.20
2023-01-11T10:39:21.666Z,10.16
2023-01-11T10:41:59.867Z,10.14
2023-01-11T10:44:35.650Z,9.95
2023-01-11T10:47:06.219Z,10.04
2023-01-11T10:49:44.425Z,10.16
2023-01-11T10:52:26.653Z,9.98
2023-01-11T10:54:57.166Z,9.88
2023-01-11T10:57:39.644Z,9.96
2023-01-11T11:00:36.409Z,9.80
2023-01-11T11:03:19.418Z,9.93
2023-01-11T11:05:53.731Z,10.16
2023-01-11T11:08:29.183Z,10.08
2023-01-11T11:11:01.867Z,10.16
2023-01-11T11:13:47.108Z,10.18
2023-01-11T11:16:31.279Z,10.26
2023-01-11T11:19:00.353Z,10.26
2023-01-11T11:21:33.588Z,10.33
2023-01-11T11:24:04.720Z,10.40
2023-01-11T11:26:37.272Z,10.45
2023-01-11T11:29:07.456Z,10.38
2023-01-11T11:31:37.299Z,10.42
2023-01-11T11:34:08.973Z,10.06
2023-01-11T11:36:44.238Z,10.07
2023-01-11T11:39:18.049Z,10.12
2023-01-11T11:41:50.441Z,10.20
2023-01-11T11:44:20.334Z,10.05
2023-01-11T11:47:06.547Z,10.33
2023-01-11T11:49:36.507Z,10.03
2023-01-11T11:52:06.285Z,10.35
2023-01-11T11:54:36.494Z,10.28
2023-01-11T11:57:15.621Z,10.38
2023-01-11T11:59:47.287Z,10.55
2023-01-11T12:02:24.473Z,10.45
2023-01-11T12:04:54.623Z,10.31
2023-01-11T12:07:25.003Z,10.13
2023-01-11T12:10:00.729Z,10.32
2023-01-11T12:12:29.596Z,10.35
2023-01-11T12:15:20.434Z,10.29
2023-01-11T12:17:48.815Z,10.20
2023-01-11T12:20:34.119Z,10.40
2023-01-11T12:23:16.693Z,10.27
2023-01-11T12:25:59.795Z,10.32
2023-01-11T12:28:42.158Z,10.40
2023-01-11T12:31:17.500Z,10.32
2023-01-11T12:33:52.834Z,10.51
2023-01-11T12:36:29.305Z,10.66
2023-01-11T12:39:06.743Z,10.61
2023-01-11T12:41:58.745Z,10.73
2023-01-11T12:44:39.990Z,10.54
2023-01-11T12:47:28.491Z,10.45
2023-01-11T12:50:05.875Z,10.40
2023-01-11T12:52:51.797Z,10.24
2023-01-11T12:55:44.567Z,10.32
2023-01-11T12:58:17.353Z,10.22
2023-01-11T13:00:59.929Z,10.10
2023-01-11T13:04:04.020Z,10.11
2023-01-11T13:06:39.202Z,10.30
2023-01-11T13:09:16.751Z,10.18
2023-01-11T13:11:52.880Z,10.28
2023-01-11T13:14:36.047Z,10.37
2023-01-11T13:17:19.089Z,10.45
2023-01-11T13:19:56.177Z,10.70
2023-01-11T13:22:29.141Z,10.85
2023-01-11T13:25:02.338Z,10.74
2023-01-11T13:27:31.755Z,10.90
2023-01-11T13:30:02.031Z,10.86
2023-01-11T13:32:35.754Z,10.77
2023-01-11T13:35:09.877Z,11.03
2023-01-11T13:37:42.183Z,11.03
2023-01-11T13:40:19.880Z,10.66
2023-01-11T13:42:51.906Z,10.41
2023-01-11T13:45:23.345Z,10.39
2023-01-11T13:47:55.552Z,10.41
2023-01-11T13:50:29.172Z,10.54
2023-01-11T13:53:03.928Z,10.37
2023-01-11T13:55:38.039Z,10.53
2023-01-11T13:58:12.132Z,10.24
2023-01-11T14:00:42.639Z,10.40
2023-01-11T14:03:21.680Z,10.41
2023-01-11T14:06:00.195Z,10.39
2023-01-11T14:08:53.574Z,10.35
2023-01-11T14:11:32.147Z,10.36
2023-01-11T14:14:16.265Z,10.17
2023-01-11T14:17:07.348Z,10.01
2023-01-11T14:19:42.199Z,10.23
2023-01-11T14:22:20.791Z,10.34
2023-01-11T14:24:58.220Z,10.35
2023-01-11T14:27:52.907Z,10.50
2023-01-11T14:30:41.428Z,10.44
2023-01-11T14:33:48.685Z,10.34
2023-01-11T14:36:34.939Z,10.25
2023-01-11T14:39:23.910Z,10.50
2023-01-11T14:42:29.269Z,10.59
2023-01-11T14:45:19.640Z,10.28
2023-01-11T14:48:06.131Z,10.29
2023-01-11T14:50:49.587Z,10.19
2023-01-11T14:53:20.384Z,10.39
2023-01-11T14:55:49.091Z,10.52
2023-01-11T14:58:21.152Z,10.42
2023-01-11T15:01:11.945Z,10.38
2023-01-11T15:03:57.474Z,10.25
2023-01-11T15:06:25.337Z,10.20
2023-01-11T15:08:55.895Z,10.39
2023-01-11T15:11:30.037Z,10.31
2023-01-11T15:13:59.664Z,10.00
2023-01-11T15:16:47.792Z,10.10
2023-01-11T15:19:27.279Z,10.11
2023-01-11T15:21:56.990Z,10.10
2023-01-11T15:24:27.761Z,10.24
2023-01-11T15:26:56.867Z,10.29
2023-01-11T15:29:28.082Z,10.33
2023-01-11T15:32:16.321Z,10.51
2023-01-11T15:34:46.388Z,10.61
2023-01-11T15:37:34.403Z,10.59
2023-01-11T15:40:06.502Z,10.63
2023-01-11T15:43:22.114Z,10.68
2023-01-11T15:46:26.867Z,10.20
2023-01-11T15:49:26.265Z,10.11
2023-01-11T15:52:19.725Z,10.26
2023-01-11T15:55:19.469Z,10.09
2023-01-11T15:58:12.077Z,10.20
2023-01-11T16:01:09.625Z,10.04
2023-01-11T16:03:57.920Z,10.04
2023-01-11T16:06:52.848Z,9.80
2023-01-11T16:09:31.925Z,9.97
2023-01-11T16:12:15.567Z,9.98
2023-01-11T16:15:07.715Z,9.79
2023-01-11T16:17:38.290Z,9.89
2023-01-11T16:20:14.588Z,9.95
2023-01-11T16:22:50.498Z,9.72
2023-01-11T16:25:18.696Z,9.63
2023-01-11T16:27:52.979Z,9.72
2023-01-11T16:30:21.128Z,9.66
2023-01-11T16:32:48.710Z,9.49
2023-01-11T16:35:19.215Z,9.50
2023-01-11T16:37:51.724Z,9.50
2023-01-11T16:40:24.322Z,9.46
2023-01-11T16:42:55.233Z,9.47
2023-01-11T16:45:25.065Z,9.48
2023-01-11T16:48:04.284Z,9.40
2023-01-11T16:50:34.905Z,9.39
2023-01-11T16:53:06.071Z,9.44
2023-01-11T16:55:37.624Z,9.41
2023-01-11T16:58:07.964Z,9.39
2023-01-11T17:00:39.412Z,9.57
2023-01-11T17:03:25.340Z,9.47
2023-01-11T17:05:58.452Z,9.32
2023-01-11T17:08:30.207Z,9.32
2023-01-11T17:11:02.338Z,9.40
2023-01-11T17:13:55.365Z,9.27
2023-01-11T17:16:26.040Z,9.41
2023-01-11T17:18:55.124Z,9.41
2023-01-11T17:21:25.600Z,9.52
2023-01-11T17:23:59.935Z,9.41
2023-01-11T17:26:30.435Z,9.38
2023-01-11T17:29:00.136Z,9.39
2023-01-11T17:31:30.807Z,9.41
2023-01-11T17:34:03.495Z,9.29
2023-01-11T17:36:32.239Z,9.41
2023-01-11T17:39:02.407Z,9.51
2023-01-11T17:41:48.214Z,9.48
2023-01-11T17:44:36.583Z,9.38
2023-01-11T17:47:07.669Z,9.35
2023-01-11T17:49:37.378Z,9.43
2023-01-11T17:52:21.076Z,9.34
2023-01-11T17:55:00.948Z,9.21
2023-01-11T17:57:28.736Z,9.15
2023-01-11T18:00:18.671Z,9.38
2023-01-11T18:02:47.224Z,9.23
2023-01-11T18:05:17.428Z,9.26
2023-01-11T18:07:48.079Z,9.20
2023-01-11T18:10:22.085Z,9.13
2023-01-11T18:12:50.715Z,9.13
2023-01-11T18:15:24.158Z,9.14
2023-01-11T18:17:56.573Z,9.11
2023-01-11T18:20:39.013Z,9.09
2023-01-11T18:23:22.548Z,9.10
2023-01-11T18:26:11.545Z,9.04
2023-01-11T18:28:39.092Z,8.97
2023-01-11T18:31:06.745Z,9.09
2023-01-11T18:33:35.064Z,9.16
2023-01-11T18:36:04.512Z,9.06
2023-01-11T18:38:33.912Z,8.99
2023-01-11T18:41:21.443Z,8.96
2023-01-11T18:43:49.025Z,8.95
2023-01-11T18:46:16.565Z,8.95
2023-01-11T18:48:44.124Z,8.86
2023-01-11T18:51:17.387Z,8.91
2023-01-11T18:53:45.018Z,8.67
2023-01-11T18:56:16.117Z,8.65
2023-01-11T18:58:43.653Z,8.66
2023-01-11T19:01:11.758Z,8.95
2023-01-11T19:03:39.381Z,8.99
2023-01-11T19:06:09.684Z,8.75
2023-01-11T19:08:37.384Z,8.73
2023-01-11T19:11:05.086Z,8.75
2023-01-11T19:13:33.911Z,8.73
2023-01-11T19:16:01.618Z,8.69
2023-01-11T19:18:29.485Z,8.74
2023-01-11T19:21:01.752Z,8.73
2023-01-11T19:23:29.484Z,8.81
2023-01-11T19:25:57.717Z,8.66
2023-01-11T19:28:25.288Z,8.75
2023-01-11T19:30:54.243Z,8.83
2023-01-11T19:33:21.868Z,8.71
2023-01-11T19:35:49.856Z,8.81
2023-01-11T19:38:18.238Z,8.84
2023-01-11T19:40:45.833Z,8.93
2023-01-11T19:43:13.330Z,8.87
2023-01-11T19:45:40.946Z,8.85
2023-01-11T19:48:10.802Z,8.86
2023-01-11T19:50:38.259Z,8.75
2023-01-11T19:53:08.548Z,8.78
2023-01-11T19:55:36.051Z,8.86
2023-01-11T19:58:04.527Z,8.97
2023-01-11T20:00:32.741Z,8.77
2023-01-11T20:03:05.684Z,8.70
2023-01-11T20:05:34.589Z,8.71
2023-01-11T20:08:02.090Z,8.67
2023-01-11T20:10:29.546Z,8.58
2023-01-11T20:12:57.020Z,8.66
2023-01-11T20:15:24.748Z,8.63
2023-01-11T20:17:52.292Z,8.59
2023-01-11T20:20:20.182Z,8.56
2023-01-11T20:22:49.036Z,8.50
2023-01-11T20:25:17.631Z,8.60
2023-01-11T20:27:45.116Z,8.72
2023-01-11T20:30:13.163Z,8.67
2023-01-11T20:32:42.483Z,8.73
2023-01-11T20:35:10.940Z,8.68
2023-01-11T20:37:38.779Z,8.61
2023-01-11T20:40:11.805Z,8.70
2023-01-11T20:42:40.027Z,8.73
2023-01-11T20:45:08.765Z,8.59
2023-01-11T20:47:36.437Z,8.60
2023-01-11T20:50:04.023Z,8.65
2023-01-11T20:52:31.718Z,8.60
2023-01-11T20:54:59.208Z,8.77
2023-01-11T20:57:29.316Z,8.62
2023-01-11T20:59:57.516Z,8.62
2023-01-11T21:02:25.086Z,8.65
2023-01-11T21:04:52.611Z,8.67
2023-01-11T21:07:20.252Z,8.68
2023-01-11T21:09:47.882Z,8.76
2023-01-11T21:12:17.451Z,8.78
2023-01-11T21:14:46.291Z,8.87
2023-01-11T21:17:13.840Z,8.86
2023-01-11T21:19:43.540Z,8.84
2023-01-11T21:22:11.165Z,8.86
2023-01-11T21:24:40.884Z,8.91
2023-01-11T21:27:08.984Z,8.96
2023-01-11T21:29:36.640Z,8.92
2023-01-11T21:32:06.038Z,8.86
2023-01-11T21:34:33.558Z,8.84
2023-01-11T21:37:01.084Z,8.83
2023-01-11T21:39:28.756Z,8.76
2023-01-11T21:41:57.343Z,8.68
2023-01-11T21:44:29.304Z,8.61
2023-01-11T21:46:56.890Z,8.68
2023-01-11T21:49:25.777Z,8.60
2023-01-11T21:51:53.756Z,8.49
2023-01-11T21:54:21.656Z,8.55
2023-01-11T21:56:50.065Z,8.57
2023-01-11T21:59:18.433Z,8.49
2023-01-11T22:01:49.267Z,8.45
2023-01-11T22:04:19.169Z,8.44
2023-01-11T22:06:51.255Z,8.25
2023-01-11T22:09:19.876Z,8.28
2023-01-11T22:11:47.393Z,8.39
2023-01-11T22:14:14.835Z,8.27
2023-01-11T22:16:42.347Z,8.15
2023-01-11T22:19:10.289Z,8.11
2023-01-11T22:21:38.608Z,8.12
2023-01-11T22:24:10.483Z,8.16
2023-01-11T22:26:38.835Z,8.09
2023-01-11T22:29:15.647Z,7.99
2023-01-11T22:31:46.694Z,8.01
2023-01-11T22:34:15.814Z,7.99
2023-01-11T22:36:44.458Z,7.97
2023-01-11T22:39:15.006Z,8.09
2023-01-11T22:41:45.320Z,7.96
2023-01-11T22:44:13.641Z,8.02
2023-01-11T22:46:41.366Z,8.05
2023-01-11T22:49:09.285Z,8.04
2023-01-11T22:51:37.129Z,8.11
2023-01-11T22:54:05.419Z,8.07
2023-01-11T22:56:34.351Z,8.19
2023-01-11T22:59:02.020Z,8.13
2023-01-11T23:01:31.673Z,8.16
2023-01-11T23:03:59.968Z,8.27
2023-01-11T23:06:29.495Z,8.27
2023-01-11T23:08:58.116Z,8.37
2023-01-11T23:11:45.736Z,8.36
2023-01-11T23:14:17.684Z,8.25
2023-01-11T23:16:46.979Z,8.42
2023-01-11T23:19:17.274Z,8.31
2023-01-11T23:21:46.193Z,8.31
2023-01-11T23:24:16.096Z,8.43
2023-01-11T23:26:43.774Z,8.39
2023-01-11T23:29:11.546Z,8.30
2023-01-11T23:31:40.450Z,8.44
2023-01-11T23:34:08.807Z,8.42
2023-01-11T23:36:38.269Z,8.46
2023-01-11T23:39:06.788Z,8.51
2023-01-11T23:41:52.142Z,8.53
2023-01-11T23:44:19.965Z,8.35
2023-01-11T23:47:06.295Z,8.33
2023-01-11T23:49:34.043Z,8.44
2023-01-11T23:52:02.014Z,8.39
2023-01-11T23:54:31.827Z,8.26
2023-01-11T23:57:00.444Z,8.33
2023-01-11T23:59:28.224Z,8.41
